Time;durP1;ratioP1;P1;durP2;ratioP2;P2;SDS_P1;SDS_P2;PMS_P1;PMS_P2;Temp;Humidity;BMP_temperature;BMP_pressure;BME280_temperature;BME280_humidity;BME280_pressure;Samples;Min_cycle;Max_cycle;Signal;HPM_P1;HPM_P2
2022/08/28 00:00:12;;;;;;;13.17;6.00;;;20.10;98.00;;;;;;6184713;23;20419;-86
2022/08/28 00:02:40;;;;;;;11.40;5.33;;;20.00;98.00;;;;;;6184765;23;20439;-87
2022/08/28 00:05:10;;;;;;;8.87;5.27;;;20.00;98.00;;;;;;6184492;23;20427;-87
2022/08/28 00:07:37;;;;;;;9.80;5.13;;;20.00;98.00;;;;;;6194483;23;20415;-87
2022/08/28 00:10:10;;;;;;;11.10;6.10;;;20.20;98.00;;;;;;6185050;23;20506;-87
2022/08/28 00:12:38;;;;;;;11.83;4.77;;;20.30;98.00;;;;;;6184474;23;20404;-87
2022/08/28 00:15:07;;;;;;;13.40;5.80;;;20.30;98.00;;;;;;6184943;23;20503;-87
2022/08/28 00:17:34;;;;;;;10.70;6.37;;;20.10;98.00;;;;;;6184390;23;20933;-87
2022/08/28 00:20:01;;;;;;;16.20;5.90;;;20.00;98.00;;;;;;6184951;23;20423;-87
2022/08/28 00:22:28;;;;;;;10.77;6.03;;;20.00;98.00;;;;;;6184500;23;20447;-87
2022/08/28 00:24:55;;;;;;;12.60;5.90;;;20.00;98.00;;;;;;6184414;23;20434;-87
2022/08/28 00:30:10;;;;;;;11.73;5.50;;;19.90;98.00;;;;;;6184644;23;21005;-87
2022/08/28 00:32:37;;;;;;;8.70;5.00;;;20.00;98.00;;;;;;6184848;23;20419;-87
2022/08/28 00:35:05;;;;;;;17.17;6.40;;;19.90;98.00;;;;;;6184769;23;20423;-86
2022/08/28 00:37:32;;;;;;;11.13;5.40;;;19.80;98.00;;;;;;6184487;23;20447;-87
2022/08/28 00:39:59;;;;;;;10.10;5.67;;;19.70;98.00;;;;;;6184658;23;20757;-87
2022/08/28 00:42:28;;;;;;;12.23;5.90;;;19.70;98.00;;;;;;6184638;23;20814;-87
2022/08/28 00:44:55;;;;;;;9.67;4.63;;;19.80;98.00;;;;;;6184594;23;20424;-87
2022/08/28 00:47:23;;;;;;;12.77;4.73;;;19.80;98.00;;;;;;6184140;23;20423;-87
2022/08/28 00:49:54;;;;;;;13.80;6.00;;;19.80;98.00;;;;;;6184275;23;20425;-87
2022/08/28 00:52:23;;;;;;;9.00;5.00;;;19.80;98.00;;;;;;6184739;23;20403;-87
2022/08/28 00:54:55;;;;;;;11.70;5.30;;;19.80;98.00;;;;;;6184337;23;20424;-87
2022/08/28 00:57:26;;;;;;;12.43;5.37;;;19.80;98.00;;;;;;6184430;23;20435;-86
2022/08/28 00:59:54;;;;;;;12.37;5.77;;;19.70;98.00;;;;;;6184702;23;20414;-87
2022/08/28 01:02:22;;;;;;;10.50;5.20;;;19.70;98.00;;;;;;6184117;23;20505;-87
2022/08/28 01:04:50;;;;;;;8.50;5.13;;;19.60;98.00;;;;;;6184645;23;20449;-87
2022/08/28 01:07:20;;;;;;;13.60;5.47;;;19.70;98.00;;;;;;6183741;23;20780;-87
2022/08/28 01:09:51;;;;;;;12.97;5.80;;;19.80;98.00;;;;;;6184632;23;20424;-87
2022/08/28 01:12:21;;;;;;;10.20;4.87;;;19.90;98.00;;;;;;6194200;23;20418;-87
2022/08/28 01:14:51;;;;;;;10.40;5.40;;;20.00;98.00;;;;;;6184265;23;20889;-87
2022/08/28 01:17:23;;;;;;;9.63;5.07;;;19.90;98.00;;;;;;6183761;23;20942;-86
2022/08/28 01:19:57;;;;;;;8.77;4.60;;;20.00;98.00;;;;;;6184458;23;20730;-87
2022/08/28 01:22:30;;;;;;;12.60;5.93;;;20.00;98.00;;;;;;6184059;23;20438;-87
2022/08/28 01:25:02;;;;;;;10.73;5.13;;;19.90;98.00;;;;;;6183583;23;20399;-87
2022/08/28 01:27:29;;;;;;;9.40;4.83;;;19.90;98.00;;;;;;6183846;23;20413;-87
2022/08/28 01:29:56;;;;;;;5.50;3.50;;;19.80;98.00;;;;;;6194146;23;20752;-86
2022/08/28 01:32:30;;;;;;;11.37;5.40;;;19.80;98.00;;;;;;6184012;23;20422;-87
2022/08/28 01:34:58;;;;;;;9.47;4.60;;;19.90;98.00;;;;;;6194058;23;20806;-87
2022/08/28 01:37:25;;;;;;;9.70;4.40;;;20.00;98.00;;;;;;6183779;23;20430;-87
2022/08/28 01:39:53;;;;;;;8.90;4.77;;;20.00;98.00;;;;;;6184320;23;20745;-86
2022/08/28 01:42:21;;;;;;;7.80;4.47;;;20.10;98.00;;;;;;6184007;23;20446;-86
2022/08/28 01:44:49;;;;;;;9.67;4.30;;;20.20;98.00;;;;;;6184367;23;20423;-87
2022/08/28 01:47:16;;;;;;;12.47;5.53;;;20.30;98.00;;;;;;6193649;23;20443;-87
2022/08/28 01:49:43;;;;;;;8.97;4.03;;;20.30;98.00;;;;;;6184014;23;20423;-87
2022/08/28 01:52:10;;;;;;;8.83;4.97;;;20.30;98.00;;;;;;6183987;23;20418;-87
2022/08/28 01:54:38;;;;;;;9.70;4.80;;;20.30;98.00;;;;;;6183936;23;20427;-87
2022/08/28 01:57:05;;;;;;;9.70;5.70;;;20.40;98.00;;;;;;6184039;23;20446;-87
2022/08/28 01:59:34;;;;;;;11.27;5.83;;;20.30;98.00;;;;;;6183827;23;20430;-87
2022/08/28 02:02:02;;;;;;;9.00;4.53;;;20.30;98.00;;;;;;6193773;23;20419;-87
2022/08/28 02:04:29;;;;;;;10.97;4.93;;;20.30;98.00;;;;;;6193949;23;20457;-87
2022/08/28 07:19:14;;;;;;;9.03;4.43;;;20.60;98.00;;;;;;5129412;27;21040;-65
2022/08/28 07:21:44;;;;;;;8.63;4.10;;;21.00;98.00;;;;;;5108906;28;20455;-62
2022/08/28 07:24:13;;;;;;;7.00;4.20;;;21.00;98.00;;;;;;5108819;28;20455;-63
2022/08/28 07:26:42;;;;;;;9.27;3.90;;;21.00;98.00;;;;;;5108765;28;20474;-63
2022/08/28 07:29:10;;;;;;;11.13;4.03;;;21.10;98.00;;;;;;5108659;28;20458;-63
2022/08/28 07:31:38;;;;;;;5.67;3.37;;;21.10;98.00;;;;;;5108613;28;20483;-63
2022/08/28 07:34:05;;;;;;;6.87;4.13;;;21.00;98.00;;;;;;5108598;28;20816;-63
2022/08/28 07:36:34;;;;;;;9.03;3.53;;;21.10;98.00;;;;;;5109179;28;20466;-63
2022/08/28 07:39:01;;;;;;;6.57;4.00;;;21.10;98.00;;;;;;5109325;28;20546;-63
2022/08/28 07:41:32;;;;;;;8.80;4.40;;;21.00;98.00;;;;;;5109210;28;20444;-63
2022/08/28 07:46:44;;;;;;;6.47;3.80;;;20.70;98.00;;;;;;5109246;28;20850;-63
2022/08/28 07:49:14;;;;;;;6.70;3.60;;;20.70;98.00;;;;;;5108812;28;20451;-64
2022/08/28 07:51:42;;;;;;;7.60;4.27;;;20.70;98.00;;;;;;5108692;28;20860;-66
2022/08/28 07:54:10;;;;;;;4.10;2.90;;;20.70;98.00;;;;;;5108685;28;20458;-60
2022/08/28 07:56:39;;;;;;;7.10;4.27;;;20.80;98.00;;;;;;5108619;28;20494;-65
2022/08/28 07:59:08;;;;;;;4.80;3.20;;;21.00;98.00;;;;;;5108675;28;20794;-64
2022/08/28 08:01:39;;;;;;;7.40;3.23;;;21.10;98.00;;;;;;5107976;28;20517;-67
2022/08/28 08:04:08;;;;;;;4.60;3.30;;;21.30;98.00;;;;;;5106854;28;20549;-66
2022/08/28 08:06:37;;;;;;;4.60;3.20;;;21.50;98.00;;;;;;5109477;28;20447;-65
2022/08/28 08:09:12;;;;;;;5.93;3.37;;;21.70;98.00;;;;;;5107455;28;20455;-67
2022/08/28 08:11:39;;;;;;;7.70;4.37;;;21.90;98.00;;;;;;5109280;28;20471;-65
2022/08/28 08:14:07;;;;;;;13.40;4.10;;;22.00;98.00;;;;;;5097373;28;20455;-64
2022/08/28 08:16:37;;;;;;;6.67;3.77;;;22.10;98.00;;;;;;5108479;28;20532;-66
2022/08/28 08:19:04;;;;;;;6.17;3.40;;;22.30;98.00;;;;;;5090927;28;20862;-65
2022/08/28 08:21:32;;;;;;;7.70;3.70;;;22.60;98.00;;;;;;5101602;28;20452;-66
2022/08/28 08:23:59;;;;;;;7.90;4.40;;;22.90;98.00;;;;;;5101871;28;21071;-66
2022/08/28 08:26:29;;;;;;;6.77;3.93;;;23.00;98.00;;;;;;5092759;28;20464;-64
2022/08/28 08:28:56;;;;;;;6.67;4.00;;;23.10;98.00;;;;;;5101440;28;20536;-65
2022/08/28 08:31:25;;;;;;;6.50;3.57;;;23.00;98.00;;;;;;5093209;28;20459;-65
2022/08/28 08:33:55;;;;;;;4.80;3.23;;;23.20;98.00;;;;;;5102986;28;20480;-67
2022/08/28 08:36:27;;;;;;;6.80;4.00;;;23.10;98.00;;;;;;5094884;28;20464;-66
2022/08/28 08:38:55;;;;;;;4.40;2.90;;;23.30;98.00;;;;;;5085538;28;20456;-66
2022/08/28 08:41:27;;;;;;;7.20;3.80;;;23.40;98.00;;;;;;5101867;28;20455;-66
2022/08/28 08:44:02;;;;;;;6.43;3.93;;;23.50;98.00;;;;;;5093148;28;20464;-67
2022/08/28 08:46:38;;;;;;;7.63;3.77;;;23.60;98.00;;;;;;5104873;28;20452;-66
2022/08/28 08:49:13;;;;;;;8.40;3.80;;;23.70;98.00;;;;;;5096771;28;20492;-66
2022/08/28 08:51:43;;;;;;;5.60;3.90;;;23.80;98.00;;;;;;5091576;28;20474;-66
2022/08/28 08:54:13;;;;;;;7.43;4.00;;;23.90;98.00;;;;;;5102434;28;20808;-66
2022/08/28 08:56:42;;;;;;;6.27;3.97;;;23.80;98.00;;;;;;5104854;28;20882;-66
2022/08/28 08:59:16;;;;;;;10.03;3.70;;;23.50;98.00;;;;;;5092587;28;20452;-66
2022/08/28 09:01:49;;;;;;;12.53;3.57;;;23.40;98.00;;;;;;5098188;28;20461;-66
2022/08/28 09:04:35;;;;;;;4.93;3.60;;;23.20;98.00;;;;;;5111259;28;20482;-67
2022/08/28 09:07:10;;;;;;;6.40;3.80;;;23.20;98.00;;;;;;5100940;28;20453;-66
2022/08/28 09:09:49;;;;;;;7.00;3.60;;;23.00;98.00;;;;;;5110382;28;20466;-66
2022/08/28 09:12:19;;;;;;;7.80;3.90;;;23.10;98.00;;;;;;5099875;28;20463;-66
2022/08/28 09:14:57;;;;;;;6.60;3.77;;;23.40;98.00;;;;;;5073657;28;20488;-67
2022/08/28 09:17:31;;;;;;;6.30;3.40;;;23.60;98.00;;;;;;5091862;28;20570;-65
2022/08/28 09:19:59;;;;;;;6.53;3.63;;;23.70;98.00;;;;;;5093760;28;20528;-67
2022/08/28 09:22:26;;;;;;;5.70;3.40;;;23.90;98.00;;;;;;5083006;28;20492;-66
2022/08/28 09:24:53;;;;;;;7.27;3.80;;;24.00;98.00;;;;;;5101056;28;20976;-66
2022/08/28 09:27:27;;;;;;;4.23;3.10;;;24.00;98.00;;;;;;5099509;28;20488;-67
2022/08/28 09:30:01;;;;;;;5.97;3.47;;;24.10;98.00;;;;;;5100154;28;20459;-66
2022/08/28 09:32:32;;;;;;;5.70;3.60;;;24.10;98.00;;;;;;5098078;28;20459;-66
2022/08/28 09:35:11;;;;;;;7.33;4.10;;;24.20;98.00;;;;;;5094642;28;20463;-65
2022/08/28 09:37:39;;;;;;;8.27;4.67;;;24.20;98.00;;;;;;5096296;28;20467;-65
2022/08/28 09:40:23;;;;;;;8.03;3.40;;;24.20;98.00;;;;;;5091066;28;20511;-66
2022/08/28 09:45:58;;;;;;;8.53;3.80;;;24.00;98.00;;;;;;5098172;28;20443;-66
2022/08/28 09:48:32;;;;;;;5.13;3.40;;;23.90;98.00;;;;;;5107244;28;20491;-65
2022/08/28 09:51:02;;;;;;;7.43;4.50;;;24.00;98.00;;;;;;5099597;28;20574;-65
2022/08/28 09:53:36;;;;;;;6.40;3.97;;;24.10;98.00;;;;;;5100209;28;20469;-65
2022/08/28 09:56:12;;;;;;;7.23;4.13;;;24.40;98.00;;;;;;5098948;28;20455;-66
2022/08/28 09:58:42;;;;;;;7.53;3.90;;;24.60;98.00;;;;;;5109639;28;20455;-66
2022/08/28 10:01:36;;;;;;;7.97;3.87;;;24.60;98.00;;;;;;5094248;28;20570;-66
2022/08/28 10:04:18;;;;;;;6.20;3.40;;;24.60;98.00;;;;;;5101389;28;20456;-66
2022/08/28 10:06:51;;;;;;;6.83;4.17;;;24.60;98.00;;;;;;5091988;28;20458;-66
2022/08/28 10:09:30;;;;;;;6.67;3.70;;;24.70;98.00;;;;;;5074901;28;20496;-66
2022/08/28 10:12:04;;;;;;;6.77;3.90;;;24.80;98.00;;;;;;5092627;28;20468;-65
2022/08/28 10:14:46;;;;;;;4.50;3.20;;;24.70;98.00;;;;;;5099328;28;20490;-65
2022/08/28 10:17:25;;;;;;;7.23;3.73;;;24.70;98.00;;;;;;5097138;28;20954;-66
2022/08/28 10:20:03;;;;;;;7.63;4.20;;;24.90;98.00;;;;;;5094162;28;20925;-65
2022/08/28 10:22:40;;;;;;;5.97;3.60;;;24.90;98.00;;;;;;5101527;28;20458;-65
2022/08/28 10:25:21;;;;;;;6.10;4.07;;;24.90;98.00;;;;;;5099155;28;20451;-66
2022/08/28 10:28:05;;;;;;;5.80;3.50;;;24.90;98.00;;;;;;5084279;28;20996;-66
2022/08/28 10:30:37;;;;;;;6.43;3.60;;;24.90;98.00;;;;;;5099773;28;20459;-66
2022/08/28 10:33:26;;;;;;;5.20;3.93;;;25.10;98.00;;;;;;5096055;28;20464;-66
2022/08/28 10:36:03;;;;;;;6.13;3.60;;;25.10;98.00;;;;;;5096510;28;20963;-66
2022/08/28 10:38:38;;;;;;;7.60;4.07;;;25.10;98.00;;;;;;5089053;28;20486;-65
2022/08/28 10:41:10;;;;;;;6.80;3.77;;;25.30;98.00;;;;;;5098953;28;20462;-65
2022/08/28 10:43:44;;;;;;;5.30;3.70;;;25.50;98.00;;;;;;5098694;28;20460;-66
2022/08/28 10:46:16;;;;;;;4.63;3.43;;;25.80;98.00;;;;;;5100402;28;20455;-66
2022/08/28 10:48:51;;;;;;;4.20;2.97;;;26.20;98.00;;;;;;5090024;28;20881;-66
2022/08/28 10:51:23;;;;;;;6.17;3.47;;;26.60;98.00;;;;;;5101928;28;20457;-66
2022/08/28 10:53:54;;;;;;;7.17;4.20;;;26.90;98.00;;;;;;5098456;28;20460;-66
2022/08/28 10:56:26;;;;;;;7.97;4.30;;;27.30;98.00;;;;;;5095573;28;20463;-66
2022/08/28 10:58:57;;;;;;;5.80;3.53;;;27.50;98.00;;;;;;5102007;28;20474;-66
2022/08/28 11:01:29;;;;;;;5.80;3.20;;;27.80;98.00;;;;;;5097488;28;20550;-66
2022/08/28 11:04:01;;;;;;;5.70;3.67;;;27.80;98.00;;;;;;5089813;28;20459;-64
2022/08/28 11:06:34;;;;;;;6.20;3.63;;;27.60;98.00;;;;;;5097972;28;20451;-65
2022/08/28 11:09:23;;;;;;;4.93;3.20;;;27.50;98.00;;;;;;5099198;28;20496;-65
2022/08/28 11:11:55;;;;;;;5.80;3.13;;;27.00;98.00;;;;;;5099611;28;20505;-66
2022/08/28 11:14:29;;;;;;;5.90;3.60;;;27.00;98.00;;;;;;5099193;28;20969;-63
2022/08/28 11:17:01;;;;;;;6.07;3.70;;;27.10;98.00;;;;;;5098634;28;20517;-64
2022/08/28 11:20:03;;;;;;;5.40;3.57;;;27.40;98.00;;;;;;5089209;28;20468;-65
2022/08/28 11:22:36;;;;;;;5.63;3.53;;;27.80;98.00;;;;;;5079934;28;20781;-64
2022/08/28 11:25:13;;;;;;;6.47;3.87;;;28.10;98.00;;;;;;5103506;28;20470;-63
2022/08/28 11:28:01;;;;;;;5.37;3.40;;;28.00;98.00;;;;;;5086116;28;20454;-63
2022/08/28 11:30:34;;;;;;;4.27;3.10;;;28.20;98.00;;;;;;5098743;28;20460;-63
2022/08/28 11:33:39;;;;;;;8.30;3.40;;;28.50;97.20;;;;;;5098355;28;20451;-66
2022/08/28 11:36:11;;;;;;;6.53;3.60;;;28.40;94.90;;;;;;5085636;28;20447;-63
2022/08/28 11:39:05;;;;;;;5.97;3.40;;;28.70;94.80;;;;;;5094587;28;20452;-62
2022/08/28 11:41:34;;;;;;;5.40;3.60;;;28.90;94.50;;;;;;5076286;28;20477;-64
2022/08/28 11:44:28;;;;;;;6.40;3.60;;;28.90;95.20;;;;;;5105668;28;20979;-65
2022/08/28 11:47:40;;;;;;;6.97;3.70;;;28.90;95.70;;;;;;5098227;28;20487;-63
2022/08/28 11:50:19;;;;;;;5.40;3.77;;;28.80;94.60;;;;;;5067981;28;20472;-62
2022/08/28 11:53:17;;;;;;;5.50;3.77;;;28.70;96.80;;;;;;5105061;28;20451;-63
2022/08/28 11:56:22;;;;;;;4.73;3.23;;;28.40;96.70;;;;;;5089327;28;20512;-64
2022/08/28 11:58:57;;;;;;;5.80;3.67;;;28.00;96.80;;;;;;5101228;28;20941;-64
2022/08/28 12:01:31;;;;;;;5.90;3.47;;;27.80;97.10;;;;;;5094073;28;20464;-64
2022/08/28 12:04:03;;;;;;;5.47;3.53;;;28.10;97.20;;;;;;5110924;28;20485;-63
2022/08/28 12:06:49;;;;;;;6.90;3.83;;;28.40;95.30;;;;;;5100715;28;20472;-61
2022/08/28 12:09:42;;;;;;;4.90;3.30;;;28.60;95.20;;;;;;5087614;28;20497;-62
2022/08/28 12:12:13;;;;;;;5.50;3.20;;;28.80;92.60;;;;;;5106607;28;20458;-61
2022/08/28 12:15:09;;;;;;;4.10;2.93;;;29.20;92.00;;;;;;5104711;28;20461;-63
2022/08/28 12:17:56;;;;;;;5.27;3.33;;;28.90;93.30;;;;;;5101282;28;20464;-64
2022/08/28 12:20:39;;;;;;;5.20;3.30;;;29.00;93.20;;;;;;5097648;28;20459;-65
2022/08/28 12:23:31;;;;;;;5.00;3.10;;;29.20;91.20;;;;;;5106642;28;20506;-63
2022/08/28 12:26:01;;;;;;;8.37;4.20;;;29.20;92.80;;;;;;5093820;28;20459;-65
2022/08/28 12:28:33;;;;;;;5.60;3.30;;;29.20;93.50;;;;;;5092428;28;20475;-66
2022/08/28 12:32:10;;;;;;;9.00;3.80;;;29.10;92.90;;;;;;5090136;28;20455;-65
2022/08/28 12:34:16;;;;;;;4.10;2.97;;;29.10;92.70;;;;;;5092244;28;20458;-66
2022/08/28 12:36:45;;;;;;;5.27;3.43;;;29.10;93.50;;;;;;5106164;28;20463;-65
2022/08/28 12:39:17;;;;;;;5.60;3.37;;;29.40;91.60;;;;;;5097050;28;20458;-65
2022/08/28 12:41:45;;;;;;;4.80;3.33;;;29.50;89.90;;;;;;5105270;28;20456;-65
2022/08/28 12:44:14;;;;;;;6.67;3.53;;;29.40;90.00;;;;;;5097618;28;20505;-65
2022/08/28 12:46:43;;;;;;;6.07;3.60;;;29.30;90.70;;;;;;5109891;28;20520;-65
2022/08/28 12:49:30;;;;;;;8.50;4.20;;;29.30;90.60;;;;;;5104460;28;20488;-65
2022/08/28 12:52:15;;;;;;;6.50;3.27;;;29.40;91.70;;;;;;5101615;28;20969;-65
2022/08/28 12:54:43;;;;;;;6.90;3.63;;;29.30;90.50;;;;;;5092258;28;20450;-64
2022/08/28 12:57:13;;;;;;;4.43;3.50;;;29.10;93.30;;;;;;5110871;28;20458;-66
2022/08/28 12:59:42;;;;;;;6.53;3.80;;;28.90;93.20;;;;;;5110095;28;20466;-65
2022/08/28 13:02:12;;;;;;;5.23;3.60;;;28.80;93.40;;;;;;5083494;28;20456;-66
2022/08/28 13:04:42;;;;;;;4.80;2.97;;;28.40;93.20;;;;;;5110458;28;20542;-67
2022/08/28 13:07:14;;;;;;;5.57;3.53;;;28.20;94.50;;;;;;5092093;28;20796;-68
2022/08/28 13:09:46;;;;;;;5.53;4.07;;;28.10;94.70;;;;;;5107417;28;20502;-67
2022/08/28 13:12:20;;;;;;;5.50;3.33;;;28.00;94.90;;;;;;5094518;28;20459;-68
2022/08/28 13:14:48;;;;;;;5.93;3.57;;;27.70;96.00;;;;;;5099079;28;20876;-67
2022/08/28 13:17:47;;;;;;;4.57;3.57;;;27.40;95.90;;;;;;5102898;28;20473;-66
2022/08/28 13:20:25;;;;;;;4.73;3.43;;;27.10;96.20;;;;;;5103322;28;20456;-69
2022/08/28 13:22:55;;;;;;;6.00;3.67;;;27.50;96.60;;;;;;5099580;28;20487;-69
2022/08/28 13:25:27;;;;;;;5.00;3.57;;;28.10;93.70;;;;;;5092232;28;20492;-67
2022/08/28 13:27:59;;;;;;;5.40;3.20;;;28.60;94.30;;;;;;5100743;28;20456;-69
2022/08/28 13:30:29;;;;;;;4.50;3.30;;;29.00;92.40;;;;;;5108839;28;20521;-67
2022/08/28 13:32:59;;;;;;;4.53;3.00;;;29.20;90.20;;;;;;5109678;28;20824;-68
2022/08/28 13:35:34;;;;;;;4.47;3.00;;;29.00;87.80;;;;;;5092265;28;20460;-68
2022/08/28 13:38:05;;;;;;;3.40;2.70;;;28.50;88.50;;;;;;5092033;28;20460;-68
2022/08/28 13:40:48;;;;;;;4.77;3.10;;;28.30;90.70;;;;;;5102485;28;20491;-70
2022/08/28 13:43:24;;;;;;;4.37;3.10;;;28.00;90.80;;;;;;5108078;28;20456;-69
2022/08/28 13:45:52;;;;;;;6.83;3.47;;;27.90;90.40;;;;;;5097679;28;20455;-67
2022/08/28 13:48:21;;;;;;;5.20;3.00;;;28.00;90.70;;;;;;5109478;28;20808;-68
2022/08/28 13:50:51;;;;;;;4.40;3.33;;;27.80;90.20;;;;;;5101976;28;20474;-67
2022/08/28 13:53:20;;;;;;;4.27;3.00;;;28.30;90.80;;;;;;5090701;28;20460;-69
2022/08/28 13:55:50;;;;;;;4.53;3.43;;;28.90;90.90;;;;;;5091191;28;20942;-67
2022/08/28 13:58:17;;;;;;;4.40;3.20;;;29.30;87.80;;;;;;5105007;28;20447;-66
2022/08/28 14:00:47;;;;;;;6.97;3.23;;;29.60;87.50;;;;;;5094945;28;20982;-67
2022/08/28 14:06:01;;;;;;;6.30;3.93;;;29.80;87.70;;;;;;5106934;28;20442;-67
2022/08/28 14:08:30;;;;;;;5.67;3.40;;;30.10;87.20;;;;;;5085471;28;20451;-66
2022/08/28 14:10:57;;;;;;;5.90;3.30;;;30.30;87.10;;;;;;5109131;28;20446;-63
2022/08/28 14:13:26;;;;;;;4.80;3.50;;;30.40;85.40;;;;;;5109475;28;20478;-66
2022/08/28 14:15:53;;;;;;;5.47;3.53;;;30.80;87.30;;;;;;5100452;28;20475;-68
2022/08/28 14:18:21;;;;;;;4.37;3.20;;;30.70;85.00;;;;;;5090267;28;20540;-63
2022/08/28 14:20:48;;;;;;;5.87;3.43;;;30.40;87.80;;;;;;5099579;28;20580;-63
2022/08/28 14:23:17;;;;;;;5.87;3.70;;;30.60;87.70;;;;;;5099833;28;20474;-64
2022/08/28 14:25:47;;;;;;;6.03;3.50;;;30.20;88.70;;;;;;5106989;28;20972;-63
2022/08/28 14:28:15;;;;;;;8.00;3.77;;;29.80;88.90;;;;;;5098182;28;20528;-65
2022/08/28 14:30:44;;;;;;;4.97;3.10;;;29.40;88.90;;;;;;5098757;28;20483;-63
2022/08/28 14:33:13;;;;;;;4.30;3.13;;;29.20;88.90;;;;;;5107831;28;20961;-65
2022/08/28 14:35:41;;;;;;;3.63;2.80;;;29.10;88.10;;;;;;5110909;28;20443;-66
2022/08/28 14:38:10;;;;;;;5.60;3.30;;;28.90;88.50;;;;;;5111731;28;20466;-65
2022/08/28 14:40:38;;;;;;;4.57;2.80;;;28.80;88.80;;;;;;5111943;28;20455;-65
2022/08/28 14:43:08;;;;;;;5.90;3.50;;;28.80;89.50;;;;;;5111747;28;20503;-66
2022/08/28 14:45:42;;;;;;;4.30;3.10;;;28.60;89.20;;;;;;5111904;28;20945;-65
2022/08/28 14:48:09;;;;;;;6.40;3.37;;;28.40;90.40;;;;;;5111677;28;20451;-64
2022/08/28 14:50:40;;;;;;;4.87;3.20;;;28.10;91.70;;;;;;5111843;28;20487;-65
2022/08/28 14:53:08;;;;;;;4.47;3.00;;;28.10;91.10;;;;;;5110486;28;20454;-66
2022/08/28 14:55:40;;;;;;;5.60;3.30;;;27.90;92.60;;;;;;5111862;28;20831;-65
2022/08/28 14:58:08;;;;;;;5.20;3.20;;;28.00;91.80;;;;;;5111726;28;20459;-66
2022/08/28 15:00:39;;;;;;;5.07;3.37;;;28.10;91.70;;;;;;5111799;28;20455;-65
2022/08/28 15:03:06;;;;;;;4.90;3.40;;;28.30;91.10;;;;;;5111659;28;20459;-64
2022/08/28 15:05:34;;;;;;;5.13;3.57;;;28.00;91.60;;;;;;5111811;28;20474;-65
2022/08/28 15:08:01;;;;;;;4.23;2.97;;;27.80;93.10;;;;;;5111619;28;20992;-67
2022/08/28 15:10:29;;;;;;;4.00;3.03;;;27.90;92.20;;;;;;5111851;28;20487;-64
2022/08/28 15:12:56;;;;;;;4.47;2.97;;;28.00;92.20;;;;;;5111772;28;20459;-66
2022/08/28 15:15:25;;;;;;;6.60;3.50;;;27.80;91.70;;;;;;5111735;28;20478;-66
2022/08/28 15:17:52;;;;;;;5.50;3.60;;;28.00;92.10;;;;;;5111676;28;20868;-64
2022/08/28 15:20:21;;;;;;;6.77;3.70;;;28.40;92.60;;;;;;5108455;28;20453;-68
2022/08/28 15:22:48;;;;;;;5.97;2.90;;;28.80;90.50;;;;;;5091337;28;20447;-67
2022/08/28 15:25:18;;;;;;;5.00;3.27;;;29.20;87.90;;;;;;5091628;28;20455;-67
2022/08/28 15:27:45;;;;;;;5.07;3.40;;;29.50;85.80;;;;;;5277153;22;20445;-68
2022/08/28 15:30:12;;;;;;;6.00;3.73;;;29.60;87.40;;;;;;5093473;28;20480;-68
2022/08/28 15:35:10;;;;;;;4.27;3.07;;;29.60;88.00;;;;;;5022863;28;20480;-65
2022/08/28 15:37:37;;;;;;;4.63;3.17;;;29.90;87.30;;;;;;5015513;28;20857;-64
2022/08/28 15:42:51;;;;;;;5.90;3.50;;;30.40;86.20;;;;;;5015291;28;20451;-61
2022/08/28 15:45:18;;;;;;;6.20;3.33;;;30.40;85.70;;;;;;5015689;28;20459;-65
2022/08/28 15:47:46;;;;;;;4.53;3.00;;;30.20;86.50;;;;;;5015662;28;20837;-65
2022/08/28 15:50:16;;;;;;;4.80;3.20;;;30.50;86.10;;;;;;5015550;28;20494;-64
2022/08/28 15:52:43;;;;;;;3.83;2.80;;;30.70;84.40;;;;;;5015183;28;20973;-65
2022/08/28 15:55:11;;;;;;;4.60;3.40;;;30.50;85.40;;;;;;5014776;28;20470;-65
2022/08/28 15:57:38;;;;;;;6.67;3.70;;;29.80;85.80;;;;;;5014622;28;21032;-65
2022/08/28 16:00:07;;;;;;;4.57;3.20;;;29.30;86.10;;;;;;5014604;28;20466;-65
2022/08/28 16:02:35;;;;;;;5.63;3.60;;;29.10;87.30;;;;;;5014646;28;20859;-67
2022/08/28 16:05:02;;;;;;;5.90;3.70;;;28.90;88.20;;;;;;5014627;28;20555;-63
2022/08/28 16:07:30;;;;;;;6.47;3.40;;;28.50;88.90;;;;;;5014549;28;20833;-64
2022/08/28 16:09:58;;;;;;;4.70;3.27;;;28.20;88.90;;;;;;5017663;28;20486;-66
2022/08/28 16:12:25;;;;;;;5.10;3.40;;;27.60;90.40;;;;;;5014541;28;20462;-65
2022/08/28 16:14:53;;;;;;;5.73;3.13;;;27.70;90.30;;;;;;5026992;28;20461;-66
2022/08/28 16:17:20;;;;;;;4.47;3.10;;;27.60;91.70;;;;;;5016235;28;20451;-65
2022/08/28 16:19:47;;;;;;;4.40;2.90;;;27.70;90.90;;;;;;5033619;28;20454;-65
2022/08/28 16:22:15;;;;;;;5.37;3.20;;;27.80;89.90;;;;;;5034282;28;20753;-65
2022/08/28 16:24:44;;;;;;;4.90;3.23;;;27.60;90.90;;;;;;5034494;28;20466;-64
2022/08/28 16:27:11;;;;;;;5.20;3.30;;;27.40;91.50;;;;;;5033942;28;20465;-65
2022/08/28 16:29:39;;;;;;;4.97;3.30;;;27.20;92.00;;;;;;5033860;28;20972;-66
2022/08/28 16:32:07;;;;;;;5.37;3.43;;;27.10;92.60;;;;;;5033918;28;20459;-65
2022/08/28 16:34:35;;;;;;;5.50;2.70;;;27.30;92.90;;;;;;5048963;28;20978;-65
2022/08/28 16:37:02;;;;;;;5.67;3.50;;;27.60;92.10;;;;;;5053671;28;20823;-65
2022/08/28 16:39:29;;;;;;;6.43;3.27;;;27.80;90.10;;;;;;5052832;28;20971;-65
2022/08/28 16:41:58;;;;;;;5.80;3.30;;;28.10;89.20;;;;;;5053330;28;20461;-65
2022/08/28 16:44:26;;;;;;;3.97;2.63;;;28.20;88.80;;;;;;5053363;28;20453;-65
2022/08/28 16:46:53;;;;;;;4.20;2.80;;;28.20;87.30;;;;;;5053467;28;20683;-65
2022/08/28 16:49:20;;;;;;;5.40;3.47;;;28.00;88.00;;;;;;5053464;28;20817;-65
2022/08/28 16:51:50;;;;;;;4.73;3.03;;;27.70;90.10;;;;;;5053460;28;20454;-65
2022/08/28 16:54:19;;;;;;;4.07;2.93;;;27.40;90.20;;;;;;5053055;28;20469;-65
2022/08/28 16:56:47;;;;;;;5.83;3.67;;;27.10;91.10;;;;;;5053249;28;20457;-65
2022/08/28 16:59:19;;;;;;;4.70;2.90;;;27.10;98.00;;;;;;5053198;28;20465;-65
2022/08/28 17:01:47;;;;;;;4.33;2.90;;;26.90;98.00;;;;;;5053311;28;20937;-65
2022/08/28 17:04:14;;;;;;;4.80;2.70;;;26.60;98.00;;;;;;5053502;28;20975;-65
2022/08/28 17:06:44;;;;;;;4.30;2.80;;;26.50;98.00;;;;;;5053431;28;20454;-65
2022/08/28 17:09:11;;;;;;;8.13;3.50;;;26.30;98.00;;;;;;5053095;28;20831;-65
2022/08/28 17:11:38;;;;;;;6.80;3.27;;;26.10;98.00;;;;;;5052876;28;20568;-65
2022/08/28 17:14:09;;;;;;;5.00;3.30;;;25.80;98.00;;;;;;5035261;28;20457;-65
2022/08/28 17:16:39;;;;;;;4.67;3.07;;;25.80;98.00;;;;;;5052997;28;20460;-65
2022/08/28 17:19:06;;;;;;;4.77;3.17;;;25.60;98.00;;;;;;5052840;28;20927;-65
2022/08/28 17:24:14;;;;;;;3.80;2.67;;;25.30;98.00;;;;;;5004605;28;20457;-65
2022/08/28 17:26:43;;;;;;;5.63;3.37;;;25.30;98.00;;;;;;5052749;28;20453;-65
2022/08/28 17:29:10;;;;;;;9.33;3.53;;;25.10;98.00;;;;;;5034933;28;20542;-65
2022/08/28 17:31:40;;;;;;;4.80;2.93;;;25.00;98.00;;;;;;5052712;28;20486;-65
2022/08/28 17:34:07;;;;;;;4.37;2.80;;;24.80;98.00;;;;;;5052380;28;20461;-65
2022/08/28 17:36:36;;;;;;;3.93;2.60;;;24.70;98.00;;;;;;5052826;28;20511;-65
2022/08/28 17:39:07;;;;;;;5.43;3.37;;;24.60;98.00;;;;;;5052811;28;20465;-65
2022/08/28 17:41:34;;;;;;;6.60;3.40;;;24.50;98.00;;;;;;5052805;28;20458;-65
2022/08/28 17:44:01;;;;;;;4.90;2.70;;;24.40;98.00;;;;;;5052498;28;20465;-65
2022/08/28 17:46:29;;;;;;;4.03;2.90;;;24.30;98.00;;;;;;5052555;28;20504;-65
2022/08/28 17:48:57;;;;;;;5.17;3.03;;;24.20;98.00;;;;;;5052174;28;20488;-65
2022/08/28 17:51:25;;;;;;;5.40;3.40;;;24.20;98.00;;;;;;5051421;28;20481;-65
2022/08/28 17:53:53;;;;;;;4.30;2.83;;;24.20;98.00;;;;;;5052189;28;20462;-65
2022/08/28 17:56:20;;;;;;;4.60;3.37;;;24.40;98.00;;;;;;5052386;28;20453;-65
2022/08/28 17:58:48;;;;;;;6.87;3.63;;;24.30;98.00;;;;;;5052024;28;20453;-65
2022/08/28 18:01:19;;;;;;;5.33;3.40;;;24.20;98.00;;;;;;5052031;28;20565;-65
2022/08/28 18:03:47;;;;;;;4.37;2.80;;;24.10;98.00;;;;;;5034227;28;20460;-65
2022/08/28 18:06:15;;;;;;;4.50;3.00;;;24.10;98.00;;;;;;5052237;28;21028;-65
2022/08/28 18:08:43;;;;;;;6.43;3.07;;;24.00;98.00;;;;;;5051830;28;20450;-65
2022/08/28 18:11:12;;;;;;;4.30;2.77;;;23.80;98.00;;;;;;5051881;28;20583;-65
2022/08/28 18:13:40;;;;;;;4.37;2.77;;;23.70;98.00;;;;;;5034300;28;20450;-65
2022/08/28 18:16:10;;;;;;;4.67;3.10;;;23.60;98.00;;;;;;5034138;28;20465;-65
2022/08/28 18:18:37;;;;;;;4.60;3.17;;;23.50;98.00;;;;;;5051648;28;20462;-65
2022/08/28 18:21:04;;;;;;;4.73;3.20;;;23.40;98.00;;;;;;5051861;28;20486;-65
2022/08/28 18:23:33;;;;;;;6.33;3.60;;;23.30;98.00;;;;;;5051879;28;20458;-65
2022/08/28 18:26:00;;;;;;;5.53;3.30;;;23.20;98.00;;;;;;5051657;28;20466;-65
2022/08/28 18:28:27;;;;;;;4.57;3.37;;;23.10;98.00;;;;;;5052097;28;20974;-65
2022/08/28 18:30:54;;;;;;;4.53;3.17;;;23.10;98.00;;;;;;5051481;28;20859;-65
2022/08/28 18:33:23;;;;;;;5.53;3.27;;;22.80;98.00;;;;;;5033785;28;20466;-65
2022/08/28 18:35:52;;;;;;;6.10;3.10;;;22.80;98.00;;;;;;5051461;28;20461;-65
2022/08/28 18:38:21;;;;;;;5.00;3.40;;;22.60;98.00;;;;;;5051563;28;20458;-65